Time;durP1;ratioP1;P1;durP2;ratioP2;P2;SDS_P1;SDS_P2;PMS_P1;PMS_P2;Temp;Humidity;BMP_temperature;BMP_pressure;BME280_temperature;BME280_humidity;BME280_pressure;Samples;Min_cycle;Max_cycle;Signal;HPM_P1;HPM_P2
2024/03/02 00:00:52;;;;;;;2.78;1.27;;;10.80;99.90;;;;;;5033270;28;20087;-74
2024/03/02 00:03:19;;;;;;;5.10;1.58;;;10.70;99.90;;;;;;5033153;28;20017;-74
2024/03/02 00:05:50;;;;;;;3.78;1.13;;;10.80;99.90;;;;;;5033448;28;20031;-74
2024/03/02 00:08:24;;;;;;;3.30;1.10;;;10.80;99.90;;;;;;5032678;28;20029;-77
2024/03/02 00:10:50;;;;;;;1.70;1.08;;;10.90;99.90;;;;;;5014959;28;20030;-76
2024/03/02 00:13:15;;;;;;;4.22;1.10;;;10.90;99.90;;;;;;5031538;28;20033;-76
2024/03/02 00:15:42;;;;;;;1.20;0.70;;;10.70;99.90;;;;;;5015631;28;20037;-77
2024/03/02 00:18:11;;;;;;;0.82;0.40;;;10.60;99.90;;;;;;5033035;28;20466;-76
2024/03/02 00:20:37;;;;;;;0.47;0.17;;;10.50;99.90;;;;;;5032764;28;20045;-76
2024/03/02 00:23:12;;;;;;;3.03;0.28;;;10.50;99.90;;;;;;5032677;28;20029;-76
2024/03/02 00:25:39;;;;;;;0.60;0.43;;;10.50;99.90;;;;;;5033142;28;20021;-76
2024/03/02 00:28:07;;;;;;;3.83;0.40;;;10.30;99.90;;;;;;5032352;28;20072;-75
2024/03/02 00:30:59;;;;;;;0.40;0.40;;;10.30;99.90;;;;;;5031295;28;20049;-76
2024/03/02 00:33:34;;;;;;;2.28;0.30;;;10.20;99.90;;;;;;5031601;28;20110;-76
2024/03/02 00:36:00;;;;;;;1.02;0.50;;;10.20;99.90;;;;;;5030660;28;20390;-76
2024/03/02 00:38:27;;;;;;;0.95;0.22;;;10.10;99.90;;;;;;5031717;28;20025;-76
2024/03/02 00:40:54;;;;;;;2.75;0.40;;;10.20;99.90;;;;;;5031405;28;20025;-76
2024/03/02 00:43:31;;;;;;;0.47;0.30;;;10.10;99.90;;;;;;5016744;28;20030;-76
2024/03/02 00:45:57;;;;;;;0.25;0.25;;;10.10;99.90;;;;;;5032878;28;20385;-76
2024/03/02 00:48:23;;;;;;;0.50;0.28;;;10.30;99.90;;;;;;5032370;28;20096;-77
2024/03/02 00:50:58;;;;;;;0.25;0.20;;;10.20;99.90;;;;;;5033038;28;20104;-75
2024/03/02 00:53:26;;;;;;;0.70;0.20;;;10.10;99.90;;;;;;5032611;28;20100;-76
2024/03/02 00:55:52;;;;;;;2.58;0.60;;;10.20;99.90;;;;;;5031996;28;20045;-75
2024/03/02 00:58:18;;;;;;;3.35;0.70;;;10.10;99.90;;;;;;5032239;28;20018;-75
2024/03/02 01:00:44;;;;;;;1.20;0.50;;;10.10;99.90;;;;;;5032938;28;20025;-76
2024/03/02 01:03:10;;;;;;;1.17;0.60;;;10.10;99.90;;;;;;5032337;28;20032;-77
2024/03/02 01:05:36;;;;;;;1.00;0.50;;;10.00;99.90;;;;;;5032234;28;20362;-75
2024/03/02 01:08:02;;;;;;;0.77;0.30;;;10.00;99.90;;;;;;5026348;28;20017;-75
2024/03/02 01:10:28;;;;;;;0.82;0.30;;;10.00;99.90;;;;;;5031723;28;20061;-74
2024/03/02 01:12:53;;;;;;;0.20;0.10;;;9.90;99.90;;;;;;5032330;28;20528;-76
2024/03/02 01:15:19;;;;;;;0.65;0.30;;;10.00;99.90;;;;;;5032355;28;20029;-77
2024/03/02 01:17:45;;;;;;;1.13;0.30;;;10.00;99.90;;;;;;5031394;28;20025;-78
2024/03/02 01:20:11;;;;;;;1.23;0.20;;;10.10;99.90;;;;;;5032199;28;20097;-76
2024/03/02 01:22:37;;;;;;;0.38;0.30;;;10.00;99.90;;;;;;5013437;28;20026;-75
2024/03/02 01:25:03;;;;;;;1.10;0.15;;;9.90;99.90;;;;;;5014729;28;20044;-75
2024/03/02 01:27:29;;;;;;;0.52;0.10;;;9.90;99.90;;;;;;5014358;28;20497;-76
2024/03/02 01:29:54;;;;;;;0.40;0.20;;;9.90;99.90;;;;;;5031976;28;20029;-76
2024/03/02 01:32:20;;;;;;;0.38;0.30;;;10.00;99.90;;;;;;5031172;28;20032;-78
2024/03/02 01:34:46;;;;;;;1.48;0.20;;;9.90;99.90;;;;;;5032087;28;20063;-75
2024/03/02 01:37:11;;;;;;;0.25;0.17;;;9.80;99.90;;;;;;5014147;28;20032;-76
2024/03/02 01:39:37;;;;;;;0.55;0.20;;;9.90;99.90;;;;;;5031848;28;20048;-75
2024/03/02 01:42:03;;;;;;;1.55;0.30;;;9.90;99.90;;;;;;5013986;28;20108;-75
2024/03/02 01:44:29;;;;;;;0.15;0.15;;;9.80;99.90;;;;;;5030221;28;20106;-75
2024/03/02 01:46:55;;;;;;;0.50;0.10;;;9.70;99.90;;;;;;5031502;28;20017;-77
2024/03/02 01:49:20;;;;;;;1.83;0.32;;;9.80;99.90;;;;;;5014326;28;20025;-75
2024/03/02 01:51:46;;;;;;;0.10;0.10;;;9.80;99.90;;;;;;5031421;28;20041;-75
2024/03/02 01:54:12;;;;;;;0.63;0.20;;;9.90;99.90;;;;;;5031913;28;20100;-75
2024/03/02 01:56:37;;;;;;;0.25;0.20;;;9.90;99.90;;;;;;5035571;28;20087;-75
2024/03/02 01:59:03;;;;;;;1.88;0.30;;;9.90;99.90;;;;;;5036022;28;20021;-75
2024/03/02 02:01:30;;;;;;;3.22;0.57;;;9.80;99.90;;;;;;5017145;28;20025;-76
2024/03/02 02:03:56;;;;;;;0.52;0.40;;;9.80;99.90;;;;;;5034709;28;20462;-77
2024/03/02 02:06:21;;;;;;;0.88;0.30;;;9.80;99.90;;;;;;5035335;28;20034;-76
2024/03/02 02:08:47;;;;;;;1.33;0.35;;;9.80;99.90;;;;;;5035373;28;20053;-78
2024/03/02 02:11:16;;;;;;;0.38;0.20;;;9.70;99.90;;;;;;5035296;28;20115;-77
2024/03/02 02:13:42;;;;;;;0.88;0.40;;;9.80;99.90;;;;;;5035783;28;20466;-75
2024/03/02 02:16:08;;;;;;;0.65;0.22;;;9.60;99.90;;;;;;5034921;28;20044;-75
2024/03/02 02:18:35;;;;;;;0.30;0.30;;;9.50;99.90;;;;;;5035757;28;20445;-75
2024/03/02 02:21:02;;;;;;;0.63;0.32;;;9.60;99.90;;;;;;5035048;28;20025;-76
2024/03/02 02:23:27;;;;;;;0.70;0.20;;;9.60;99.90;;;;;;5035990;28;20029;-76
2024/03/02 02:25:53;;;;;;;1.00;0.30;;;9.60;99.90;;;;;;5034382;28;20489;-75
2024/03/02 02:28:19;;;;;;;0.75;0.30;;;9.70;99.90;;;;;;5035733;28;20021;-74
2024/03/02 02:30:44;;;;;;;1.30;0.20;;;9.70;99.90;;;;;;5035283;28;20013;-75
2024/03/02 02:33:10;;;;;;;1.65;0.43;;;9.70;99.90;;;;;;5035099;28;20037;-76
2024/03/02 02:35:36;;;;;;;0.95;0.30;;;9.70;99.90;;;;;;5034716;28;20048;-76
2024/03/02 02:38:03;;;;;;;0.52;0.40;;;9.70;99.90;;;;;;5034764;28;20040;-75
2024/03/02 02:40:31;;;;;;;1.00;0.20;;;9.70;99.90;;;;;;5035542;28;20026;-75
2024/03/02 02:42:58;;;;;;;0.40;0.30;;;9.70;99.90;;;;;;5034564;28;20354;-77
2024/03/02 02:45:24;;;;;;;0.40;0.10;;;9.70;99.90;;;;;;5035283;28;20024;-75
2024/03/02 02:47:50;;;;;;;1.35;0.40;;;9.80;99.90;;;;;;5035219;28;20025;-75
2024/03/02 02:50:16;;;;;;;0.88;0.40;;;9.80;99.90;;;;;;5016144;28;20470;-75
2024/03/02 02:52:42;;;;;;;1.00;0.30;;;9.80;99.90;;;;;;5016829;28;20032;-75
2024/03/02 02:55:10;;;;;;;1.85;0.50;;;9.70;99.90;;;;;;5034973;28;20025;-75
2024/03/02 02:57:38;;;;;;;1.50;0.38;;;9.80;99.90;;;;;;5034832;28;20044;-75
2024/03/02 03:00:16;;;;;;;1.27;0.30;;;9.90;99.90;;;;;;5023333;28;20037;-75
2024/03/02 03:02:42;;;;;;;0.30;0.30;;;9.90;99.90;;;;;;5026499;28;20028;-75
2024/03/02 03:05:10;;;;;;;1.58;0.32;;;9.80;99.90;;;;;;5034315;28;20029;-75
2024/03/02 03:07:36;;;;;;;0.20;0.20;;;9.80;99.90;;;;;;5034568;28;20056;-75
2024/03/02 03:10:04;;;;;;;2.13;0.45;;;9.80;99.90;;;;;;5035018;28;20079;-75
2024/03/02 03:12:31;;;;;;;0.70;0.32;;;9.70;99.90;;;;;;5033573;28;20031;-75
2024/03/02 03:14:57;;;;;;;2.20;0.30;;;9.60;99.90;;;;;;5021399;28;20167;-75
2024/03/02 03:17:23;;;;;;;1.02;0.13;;;9.50;99.90;;;;;;5034131;28;20481;-75
2024/03/02 03:19:49;;;;;;;0.88;0.30;;;9.40;99.90;;;;;;5034658;28;20022;-75
2024/03/02 03:22:15;;;;;;;0.32;0.28;;;9.50;99.90;;;;;;5033639;28;20037;-74
2024/03/02 03:24:40;;;;;;;0.40;0.20;;;9.50;99.90;;;;;;5016982;28;20017;-75
2024/03/02 03:27:06;;;;;;;1.67;0.30;;;9.40;99.90;;;;;;5016477;28;20028;-75
2024/03/02 03:29:32;;;;;;;0.88;0.57;;;9.40;99.90;;;;;;5034613;28;20035;-74
2024/03/02 03:31:57;;;;;;;0.52;0.30;;;9.40;99.90;;;;;;5015717;28;20086;-74
2024/03/02 03:34:23;;;;;;;2.25;0.22;;;9.50;99.90;;;;;;5023144;28;20033;-74
2024/03/02 03:36:49;;;;;;;1.17;0.40;;;9.50;99.90;;;;;;5033531;28;20044;-75
2024/03/02 03:39:14;;;;;;;0.63;0.30;;;9.40;99.90;;;;;;5033632;28;20048;-75
2024/03/02 03:41:43;;;;;;;0.30;0.20;;;9.50;99.90;;;;;;5021568;28;20718;-75
2024/03/02 03:44:09;;;;;;;0.50;0.20;;;9.50;99.90;;;;;;5021047;28;20175;-75
2024/03/02 03:46:35;;;;;;;1.58;0.40;;;9.50;99.90;;;;;;5033762;28;20553;-75
2024/03/02 03:49:00;;;;;;;0.95;0.43;;;9.50;99.90;;;;;;5016341;28;20029;-74
2024/03/02 03:51:26;;;;;;;1.40;0.10;;;9.40;99.90;;;;;;5033697;28;20057;-74
2024/03/02 03:53:51;;;;;;;0.90;0.20;;;9.40;99.90;;;;;;5034150;28;20033;-74
2024/03/02 03:56:17;;;;;;;0.35;0.15;;;9.40;99.90;;;;;;5032496;28;20501;-73
2024/03/02 03:58:43;;;;;;;1.40;0.20;;;9.50;99.90;;;;;;5033877;28;20022;-75
2024/03/02 04:01:09;;;;;;;0.57;0.20;;;9.40;99.90;;;;;;5033316;28;20549;-74
2024/03/02 04:03:34;;;;;;;0.50;0.20;;;9.40;99.90;;;;;;5014174;28;20444;-74
2024/03/02 04:06:00;;;;;;;0.20;0.15;;;9.50;99.90;;;;;;5033628;28;20029;-74
2024/03/02 04:08:26;;;;;;;0.30;0.10;;;9.50;99.90;;;;;;5033551;28;20442;-73
2024/03/02 04:10:51;;;;;;;0.73;0.30;;;9.40;99.90;;;;;;5033726;28;20509;-74
2024/03/02 04:13:17;;;;;;;0.88;0.30;;;9.40;99.90;;;;;;5033026;28;20022;-74
2024/03/02 04:15:43;;;;;;;1.75;0.30;;;9.40;99.90;;;;;;5033134;28;20041;-74
2024/03/02 04:18:09;;;;;;;0.55;0.20;;;9.30;99.90;;;;;;5032551;28;20478;-74
2024/03/02 04:20:35;;;;;;;0.50;0.20;;;9.30;99.90;;;;;;5032455;28;20029;-74
2024/03/02 04:23:00;;;;;;;0.65;0.20;;;9.30;99.90;;;;;;5015587;28;20347;-74
2024/03/02 04:25:26;;;;;;;0.93;0.20;;;9.40;99.90;;;;;;5033478;28;20039;-74
2024/03/02 04:27:52;;;;;;;0.90;0.25;;;9.30;99.90;;;;;;5032884;28;20100;-73
2024/03/02 04:30:17;;;;;;;1.40;0.10;;;9.40;99.90;;;;;;5032183;28;20036;-73
2024/03/02 04:32:46;;;;;;;3.58;0.30;;;9.30;99.90;;;;;;5031880;28;20095;-74
2024/03/02 04:35:12;;;;;;;0.47;0.20;;;9.30;99.90;;;;;;5032203;28;20025;-74
2024/03/02 04:37:38;;;;;;;1.20;0.30;;;9.30;99.90;;;;;;5033061;28;20029;-73
2024/03/02 04:40:08;;;;;;;1.05;0.20;;;9.40;99.90;;;;;;5014755;28;20021;-74
2024/03/02 04:42:34;;;;;;;1.33;0.40;;;9.40;99.90;;;;;;5031728;28;20556;-74
2024/03/02 04:44:59;;;;;;;0.82;0.30;;;9.40;99.90;;;;;;5032948;28;20026;-74
2024/03/02 04:47:25;;;;;;;0.43;0.10;;;9.50;99.90;;;;;;5032721;28;20029;-74
2024/03/02 04:49:51;;;;;;;0.30;0.20;;;9.60;99.90;;;;;;5031807;28;20029;-74
2024/03/02 04:52:17;;;;;;;0.57;0.30;;;9.60;99.90;;;;;;5015047;28;20022;-74
2024/03/02 04:57:27;;;;;;;1.58;0.25;;;9.40;99.90;;;;;;5032170;28;20405;-74
2024/03/02 04:59:53;;;;;;;1.67;0.32;;;9.30;99.90;;;;;;5013785;28;20025;-76
2024/03/02 05:02:19;;;;;;;0.20;0.20;;;9.20;99.90;;;;;;5032431;28;20516;-75
2024/03/02 05:04:44;;;;;;;1.63;0.30;;;9.20;99.90;;;;;;5032310;28;20028;-76
2024/03/02 05:07:10;;;;;;;1.05;0.28;;;9.30;99.90;;;;;;5031999;28;20394;-76
2024/03/02 05:09:36;;;;;;;0.95;0.32;;;9.30;99.90;;;;;;5031727;28;20083;-75
2024/03/02 05:12:35;;;;;;;1.00;0.52;;;9.30;99.90;;;;;;5032681;28;20060;-75
2024/03/02 05:15:01;;;;;;;2.10;0.35;;;9.40;99.90;;;;;;5013591;28;20370;-75
2024/03/02 05:17:27;;;;;;;2.25;0.30;;;9.40;99.90;;;;;;5032435;28;20029;-75
2024/03/02 05:19:53;;;;;;;2.28;0.70;;;9.20;99.90;;;;;;5032199;28;20017;-75
2024/03/02 05:22:18;;;;;;;0.40;0.35;;;9.20;99.90;;;;;;5032215;28;20057;-75
2024/03/02 05:24:44;;;;;;;2.05;0.40;;;9.10;99.90;;;;;;5032197;28;20517;-76
2024/03/02 05:27:10;;;;;;;0.45;0.30;;;9.10;99.90;;;;;;5031229;28;20040;-76
2024/03/02 05:29:35;;;;;;;0.98;0.52;;;9.00;99.90;;;;;;5031255;28;20034;-75
2024/03/02 05:32:01;;;;;;;1.98;0.40;;;9.00;99.90;;;;;;5031336;28;20076;-76
2024/03/02 05:34:27;;;;;;;1.13;0.40;;;9.10;99.90;;;;;;5030622;28;20075;-75
2024/03/02 05:36:53;;;;;;;0.75;0.40;;;9.10;99.90;;;;;;5030535;28;20513;-74
2024/03/02 05:39:18;;;;;;;2.75;0.40;;;9.20;99.90;;;;;;5031878;28;20536;-75
2024/03/02 05:41:44;;;;;;;0.85;0.30;;;9.30;99.90;;;;;;5014176;28;20029;-74
2024/03/02 05:44:10;;;;;;;2.03;0.45;;;9.30;99.90;;;;;;5031670;28;20033;-75
2024/03/02 05:46:36;;;;;;;3.20;0.40;;;9.40;99.90;;;;;;5013693;28;20021;-75
2024/03/02 05:49:01;;;;;;;1.17;0.38;;;9.30;99.90;;;;;;5031843;28;20489;-75
2024/03/02 05:51:27;;;;;;;3.15;0.50;;;9.30;99.90;;;;;;5031562;28;20484;-75
2024/03/02 05:53:53;;;;;;;0.90;0.32;;;9.30;99.90;;;;;;5029992;28;20581;-76
2024/03/02 05:56:18;;;;;;;1.23;0.32;;;9.20;99.90;;;;;;5030475;28;20032;-75
2024/03/02 06:01:29;;;;;;;0.60;0.30;;;9.20;99.90;;;;;;5020899;28;20634;-74
2024/03/02 06:03:56;;;;;;;1.45;0.40;;;9.20;99.90;;;;;;5021907;28;20025;-75
2024/03/02 06:06:22;;;;;;;1.08;0.38;;;9.10;99.90;;;;;;5031727;28;20115;-75
2024/03/02 06:08:48;;;;;;;0.82;0.43;;;9.10;99.90;;;;;;5031416;28;20057;-75
2024/03/02 06:11:14;;;;;;;2.95;0.40;;;8.90;99.90;;;;;;5029565;28;21847;-74
2024/03/02 06:13:39;;;;;;;1.17;0.40;;;8.90;99.90;;;;;;5023202;28;20116;-76
2024/03/02 06:16:05;;;;;;;1.55;0.30;;;8.90;99.90;;;;;;5023499;28;20041;-75
2024/03/02 06:18:31;;;;;;;2.97;0.55;;;8.90;99.90;;;;;;5015729;28;20053;-75
2024/03/02 06:20:57;;;;;;;1.50;0.55;;;8.90;99.90;;;;;;5026829;28;20061;-75
2024/03/02 06:23:22;;;;;;;1.58;0.50;;;8.80;99.90;;;;;;5013119;28;20146;-75
2024/03/02 06:25:48;;;;;;;0.80;0.30;;;8.70;99.90;;;;;;5031203;28;20018;-75
2024/03/02 06:28:15;;;;;;;2.78;0.50;;;8.70;99.90;;;;;;5031697;28;20040;-76
2024/03/02 06:30:42;;;;;;;3.88;0.50;;;8.70;99.90;;;;;;5030588;28;20037;-75
2024/03/02 06:33:08;;;;;;;1.05;0.50;;;8.80;99.90;;;;;;5031374;28;20124;-75
2024/03/02 06:35:35;;;;;;;2.63;0.63;;;8.90;99.90;;;;;;5030415;28;20124;-75
2024/03/02 06:38:01;;;;;;;1.15;0.40;;;8.80;99.90;;;;;;5031793;28;20480;-76
2024/03/02 06:40:26;;;;;;;2.40;0.50;;;8.90;99.90;;;;;;5031533;28;20021;-75
2024/03/02 06:42:52;;;;;;;2.33;0.47;;;8.90;99.90;;;;;;5034821;28;20026;-75
2024/03/02 06:45:18;;;;;;;2.08;0.60;;;8.90;99.90;;;;;;5024036;28;20017;-75
2024/03/02 06:47:44;;;;;;;1.75;0.40;;;8.90;99.90;;;;;;5028793;28;20028;-75
2024/03/02 06:50:09;;;;;;;1.13;0.63;;;8.80;99.90;;;;;;5035064;28;20032;-75
2024/03/02 06:52:36;;;;;;;5.75;0.80;;;8.80;99.90;;;;;;5031801;28;20470;-75
2024/03/02 06:55:02;;;;;;;1.77;0.98;;;8.80;99.90;;;;;;5022518;28;20018;-73
2024/03/02 06:57:28;;;;;;;2.28;0.65;;;8.90;99.90;;;;;;5033837;28;20025;-73
2024/03/02 06:59:58;;;;;;;1.05;0.50;;;8.80;99.90;;;;;;5035227;28;20592;-74
2024/03/02 07:02:25;;;;;;;1.85;0.57;;;8.70;99.90;;;;;;5033501;28;20107;-73
2024/03/02 07:04:51;;;;;;;3.20;0.40;;;8.80;99.90;;;;;;5034306;28;20026;-74
2024/03/02 07:07:17;;;;;;;1.75;0.77;;;8.80;99.90;;;;;;5033880;28;20034;-73
2024/03/02 07:09:42;;;;;;;3.10;0.50;;;8.80;99.90;;;;;;5034384;28;20473;-73
2024/03/02 07:12:08;;;;;;;5.07;1.15;;;8.80;99.90;;;;;;5016140;28;20088;-75
2024/03/02 07:17:19;;;;;;;3.33;0.63;;;8.70;99.90;;;;;;5027732;28;20053;-73
2024/03/02 07:19:44;;;;;;;2.28;0.70;;;8.70;99.90;;;;;;5034505;28;20072;-74
2024/03/02 07:22:11;;;;;;;3.33;0.52;;;8.70;99.90;;;;;;5027574;28;21194;-74
2024/03/02 07:24:43;;;;;;;1.65;0.55;;;8.70;99.90;;;;;;5030859;28;20104;-74
2024/03/02 07:27:12;;;;;;;3.47;0.70;;;8.70;99.90;;;;;;5032840;28;20026;-73
2024/03/02 07:29:38;;;;;;;3.53;0.80;;;8.70;99.90;;;;;;5034245;28;20021;-74
2024/03/02 07:32:05;;;;;;;2.03;0.47;;;8.70;99.90;;;;;;5020348;28;20105;-76
2024/03/02 07:34:31;;;;;;;5.00;1.00;;;8.80;99.90;;;;;;5033410;28;20061;-74
2024/03/02 07:36:57;;;;;;;2.70;0.75;;;8.70;99.90;;;;;;5015463;28;20500;-75
2024/03/02 07:39:23;;;;;;;4.38;0.82;;;8.90;99.90;;;;;;5032864;28;20478;-75
2024/03/02 07:41:49;;;;;;;2.33;0.60;;;8.80;99.90;;;;;;5022872;28;20040;-74
2024/03/02 07:44:15;;;;;;;4.15;0.80;;;8.90;99.90;;;;;;5016146;28;20018;-75
2024/03/02 07:46:42;;;;;;;3.60;0.98;;;9.00;99.90;;;;;;5033821;28;20032;-74
2024/03/02 07:49:09;;;;;;;3.75;0.77;;;9.00;99.90;;;;;;5032520;28;20100;-74
2024/03/02 07:51:34;;;;;;;5.78;0.98;;;9.00;99.90;;;;;;5020730;28;20026;-74
2024/03/02 07:54:00;;;;;;;3.10;1.00;;;9.00;99.90;;;;;;5032409;28;20021;-74
2024/03/02 07:56:26;;;;;;;5.88;0.75;;;9.00;99.90;;;;;;5033207;28;20379;-74
2024/03/02 07:58:52;;;;;;;4.10;1.08;;;9.00;99.90;;;;;;5033253;28;20029;-74
2024/03/02 08:01:18;;;;;;;2.88;0.80;;;8.90;99.90;;;;;;5033292;28;20449;-74
2024/03/02 08:03:50;;;;;;;4.43;1.10;;;9.00;99.90;;;;;;5033216;28;20024;-74
2024/03/02 08:06:21;;;;;;;1.08;0.50;;;9.10;99.90;;;;;;5031680;28;20033;-74
2024/03/02 08:08:47;;;;;;;3.88;0.80;;;9.00;99.90;;;;;;5032081;28;20028;-73
2024/03/02 08:11:13;;;;;;;3.45;0.88;;;8.90;99.90;;;;;;5033082;28;20033;-73
2024/03/02 08:13:38;;;;;;;3.65;0.88;;;9.00;99.90;;;;;;5032966;28;20031;-74
2024/03/02 08:16:07;;;;;;;2.72;0.55;;;9.20;99.90;;;;;;5033448;28;20088;-74
2024/03/02 08:18:34;;;;;;;4.50;0.85;;;9.20;99.90;;;;;;5033520;28;20371;-74
2024/03/02 08:20:59;;;;;;;5.82;0.85;;;9.30;99.90;;;;;;5033409;28;20029;-72
2024/03/02 08:23:25;;;;;;;2.38;0.68;;;9.40;99.90;;;;;;5033276;28;20377;-72
2024/03/02 08:25:51;;;;;;;4.05;0.70;;;9.60;99.90;;;;;;5033681;28;20033;-73
2024/03/02 08:28:17;;;;;;;5.78;0.52;;;9.60;99.90;;;;;;5033048;28;20026;-74
2024/03/02 08:30:43;;;;;;;3.00;0.50;;;9.70;99.90;;;;;;5033109;28;20104;-73
2024/03/02 08:33:08;;;;;;;2.83;1.40;;;9.80;99.90;;;;;;5032965;28;20493;-73
2024/03/02 08:35:36;;;;;;;3.00;0.68;;;9.90;99.90;;;;;;5033177;28;20155;-73
2024/03/02 08:38:04;;;;;;;3.13;0.60;;;10.00;99.90;;;;;;5013979;28;20386;-74
2024/03/02 08:40:30;;;;;;;1.95;0.63;;;10.00;99.90;;;;;;5020521;28;20022;-74
2024/03/02 08:42:56;;;;;;;4.55;0.95;;;10.10;99.90;;;;;;5015287;28;20416;-75
2024/03/02 08:45:22;;;;;;;2.40;0.63;;;10.20;99.90;;;;;;5032798;28;20028;-74
2024/03/02 08:47:48;;;;;;;4.18;0.57;;;10.30;99.90;;;;;;5033457;28;20025;-75
2024/03/02 08:50:14;;;;;;;3.53;0.57;;;10.50;99.90;;;;;;5032780;28;20029;-75
2024/03/02 08:52:40;;;;;;;6.55;0.60;;;10.50;99.90;;;;;;5032692;28;20028;-74
2024/03/02 08:55:07;;;;;;;4.25;0.90;;;10.50;99.90;;;;;;5032587;28;20026;-75
2024/03/02 08:57:33;;;;;;;5.85;1.10;;;10.60;99.90;;;;;;5032234;28;20482;-76
2024/03/02 08:59:59;;;;;;;3.90;0.98;;;10.80;99.90;;;;;;5034264;28;20021;-75
2024/03/02 09:02:25;;;;;;;2.83;0.60;;;10.70;99.90;;;;;;5015648;28;20490;-75
2024/03/02 09:04:51;;;;;;;3.38;0.82;;;10.80;99.90;;;;;;5040622;28;20029;-74
2024/03/02 09:07:17;;;;;;;3.30;0.95;;;10.80;99.90;;;;;;5032356;28;20076;-75
2024/03/02 09:09:42;;;;;;;4.53;0.93;;;10.70;99.90;;;;;;5033210;28;20017;-75
2024/03/02 09:12:08;;;;;;;2.60;0.60;;;10.70;99.90;;;;;;5032538;28;20541;-74
2024/03/02 09:14:35;;;;;;;5.38;1.00;;;10.90;99.90;;;;;;5032170;28;20052;-75
2024/03/02 09:17:01;;;;;;;3.88;0.80;;;10.90;99.90;;;;;;5022115;28;20033;-75
2024/03/02 09:19:26;;;;;;;6.65;0.73;;;10.90;99.90;;;;;;5035161;28;20017;-74
2024/03/02 09:21:52;;;;;;;7.43;0.90;;;11.10;99.90;;;;;;5032367;28;20043;-73
2024/03/02 09:24:18;;;;;;;2.58;0.80;;;11.20;99.90;;;;;;5014553;28;20040;-73
2024/03/02 09:26:43;;;;;;;2.97;0.60;;;11.30;99.90;;;;;;5014744;28;20049;-73
2024/03/02 09:29:09;;;;;;;3.67;0.85;;;11.40;99.90;;;;;;5031726;28;20034;-73
2024/03/02 09:31:40;;;;;;;3.35;1.02;;;11.40;99.90;;;;;;5014658;28;20565;-74
2024/03/02 09:34:06;;;;;;;6.35;1.50;;;11.60;99.90;;;;;;5034496;28;20033;-73
2024/03/02 09:36:32;;;;;;;4.35;0.73;;;11.70;99.90;;;;;;5031824;28;20155;-73
2024/03/02 09:38:57;;;;;;;5.40;1.35;;;11.60;99.90;;;;;;5032406;28;20023;-72
2024/03/02 09:41:23;;;;;;;5.65;1.05;;;11.70;99.90;;;;;;5032060;28;20508;-74
2024/03/02 09:43:50;;;;;;;4.95;0.70;;;11.80;99.90;;;;;;5031782;28;20100;-74
2024/03/02 09:46:16;;;;;;;4.25;0.80;;;12.00;99.90;;;;;;5014139;28;20128;-74
2024/03/02 09:48:41;;;;;;;5.45;1.05;;;12.00;99.90;;;;;;5031267;28;20101;-74
2024/03/02 09:51:08;;;;;;;4.20;1.00;;;12.00;99.90;;;;;;5032031;28;20031;-75
2024/03/02 09:53:34;;;;;;;4.20;0.70;;;12.00;99.90;;;;;;5032203;28;20040;-74
2024/03/02 09:56:00;;;;;;;4.20;1.17;;;11.90;99.90;;;;;;5031672;28;20037;-74
2024/03/02 09:58:26;;;;;;;5.45;1.17;;;12.00;99.90;;;;;;5031573;28;20064;-73
2024/03/02 10:00:52;;;;;;;3.40;0.80;;;12.20;99.90;;;;;;5031962;28;20030;-74
2024/03/02 10:03:19;;;;;;;7.25;0.95;;;12.40;99.90;;;;;;5031389;28;20100;-74
2024/03/02 10:05:44;;;;;;;4.35;0.70;;;12.60;99.90;;;;;;5031579;28;20033;-74
2024/03/02 10:08:10;;;;;;;2.80;0.82;;;12.50;99.90;;;;;;5031787;28;20032;-75
2024/03/02 10:10:42;;;;;;;5.60;1.73;;;12.50;99.90;;;;;;5014004;28;20036;-74
2024/03/02 10:13:09;;;;;;;2.97;0.60;;;12.60;99.90;;;;;;5031830;28;20091;-72
2024/03/02 10:15:43;;;;;;;3.80;0.90;;;12.70;99.90;;;;;;5032370;28;20018;-72
2024/03/02 10:18:13;;;;;;;6.28;1.00;;;12.80;99.90;;;;;;5035705;28;20060;-72
2024/03/02 10:20:40;;;;;;;3.17;0.80;;;12.90;99.90;;;;;;5035650;28;20078;-74
2024/03/02 10:23:13;;;;;;;4.68;1.08;;;13.10;99.90;;;;;;5035723;28;20017;-75
2024/03/02 10:25:40;;;;;;;3.72;0.90;;;13.10;99.90;;;;;;5035408;28;20068;-73
2024/03/02 10:28:06;;;;;;;3.95;0.77;;;13.30;99.90;;;;;;5035842;28;20017;-73
2024/03/02 10:30:32;;;;;;;7.70;1.20;;;13.30;99.90;;;;;;5035404;28;20033;-76
2024/03/02 10:32:58;;;;;;;3.92;0.70;;;13.30;99.90;;;;;;5035329;28;20033;-76
2024/03/02 10:35:25;;;;;;;3.65;0.60;;;13.30;99.90;;;;;;5033122;28;20033;-74
2024/03/02 10:37:52;;;;;;;2.83;0.70;;;13.50;99.90;;;;;;5017584;28;20025;-75
2024/03/02 10:40:20;;;;;;;3.80;0.73;;;13.50;99.90;;;;;;5034676;28;20034;-74
2024/03/02 10:42:47;;;;;;;2.22;0.70;;;13.40;99.90;;;;;;5035099;28;20481;-75
2024/03/02 10:45:16;;;;;;;2.58;0.80;;;13.30;99.90;;;;;;5034976;28;20033;-73
2024/03/02 10:47:44;;;;;;;4.45;1.30;;;13.40;99.90;;;;;;5034881;28;20087;-72
2024/03/02 10:50:10;;;;;;;4.15;0.90;;;13.30;99.90;;;;;;5035124;28;20025;-75
2024/03/02 10:52:40;;;;;;;3.25;1.20;;;13.30;99.90;;;;;;5016672;28;20033;-75
2024/03/02 10:55:15;;;;;;;4.63;0.90;;;13.40;99.90;;;;;;5034861;28;20491;-75
2024/03/02 10:57:52;;;;;;;4.65;1.23;;;13.20;99.90;;;;;;5034017;28;20033;-76
2024/03/02 11:00:24;;;;;;;4.07;0.95;;;13.20;99.90;;;;;;5017262;28;20053;-73
2024/03/02 11:02:56;;;;;;;3.67;1.35;;;13.10;99.90;;;;;;5021905;28;20486;-76
2024/03/02 11:05:34;;;;;;;3.15;1.08;;;13.00;99.90;;;;;;5034293;28;20108;-73
2024/03/02 11:08:07;;;;;;;2.90;1.13;;;12.90;99.90;;;;;;5016399;28;20032;-72
2024/03/02 11:10:45;;;;;;;2.90;0.80;;;13.00;99.90;;;;;;5034328;28;20097;-73
2024/03/02 11:13:12;;;;;;;2.80;0.90;;;13.10;99.90;;;;;;5034890;28;20045;-74
2024/03/02 11:15:45;;;;;;;5.47;1.10;;;13.50;99.90;;;;;;5033365;28;20036;-75
2024/03/02 11:18:12;;;;;;;2.90;0.85;;;13.40;99.90;;;;;;5032751;28;20025;-76
2024/03/02 11:20:39;;;;;;;3.58;1.05;;;13.60;99.90;;;;;;5028933;28;20030;-74
2024/03/02 11:23:09;;;;;;;5.20;1.15;;;13.50;99.90;;;;;;5025934;28;20025;-74
2024/03/02 11:25:35;;;;;;;6.88;1.27;;;13.30;99.90;;;;;;5024544;28;20032;-76
2024/03/02 11:28:03;;;;;;;4.32;1.00;;;13.70;99.90;;;;;;5029527;28;20017;-75
2024/03/02 11:30:32;;;;;;;4.03;1.05;;;14.00;99.90;;;;;;5034221;28;20105;-76
2024/03/02 11:33:08;;;;;;;7.25;1.15;;;14.00;99.90;;;;;;5033470;28;20034;-73
2024/03/02 11:35:35;;;;;;;6.22;0.90;;;14.00;99.90;;;;;;5020469;28;20021;-73
2024/03/02 11:38:03;;;;;;;6.40;0.90;;;14.30;99.90;;;;;;5029186;28;20121;-75
2024/03/02 11:40:29;;;;;;;5.82;1.20;;;14.40;99.90;;;;;;5033738;28;20020;-72
2024/03/02 11:42:56;;;;;;;6.40;1.05;;;14.70;99.90;;;;;;5033392;28;20040;-73
2024/03/02 11:45:29;;;;;;;6.57;1.00;;;14.60;99.90;;;;;;5033559;28;20072;-73
2024/03/02 11:47:59;;;;;;;7.53;1.23;;;14.80;99.90;;;;;;5011320;28;20474;-73
2024/03/02 11:50:37;;;;;;;3.35;1.10;;;14.60;99.90;;;;;;5014719;28;20036;-72
2024/03/02 11:53:16;;;;;;;4.25;1.00;;;14.80;99.90;;;;;;5027827;28;20029;-73
2024/03/02 11:55:46;;;;;;;6.03;1.40;;;14.80;99.90;;;;;;5032993;28;20072;-74
2024/03/02 11:58:12;;;;;;;4.20;1.05;;;14.90;99.90;;;;;;5031158;28;20032;-73
2024/03/02 12:00:39;;;;;;;3.90;0.90;;;14.50;99.90;;;;;;5033194;28;20096;-74
2024/03/02 12:03:09;;;;;;;7.45;1.27;;;14.80;99.90;;;;;;5033523;28;20017;-74
2024/03/02 12:05:36;;;;;;;6.40;1.08;;;14.80;99.90;;;;;;5032524;28;20087;-73
2024/03/02 12:08:03;;;;;;;4.95;1.35;;;14.60;99.90;;;;;;5027637;28;20017;-74
2024/03/02 12:10:30;;;;;;;5.32;1.20;;;14.50;99.90;;;;;;5032767;28;20072;-74
2024/03/02 12:12:56;;;;;;;3.53;0.93;;;14.60;99.90;;;;;;5025600;28;20021;-74
2024/03/02 12:15:27;;;;;;;4.70;1.08;;;14.60;99.90;;;;;;5033495;28;20045;-74
2024/03/02 12:17:57;;;;;;;4.78;1.20;;;14.70;99.90;;;;;;5029875;28;20556;-74
2024/03/02 12:20:23;;;;;;;4.63;1.20;;;14.40;99.90;;;;;;5029831;28;20159;-73
2024/03/02 12:22:54;;;;;;;3.53;1.10;;;14.30;99.90;;;;;;5032567;28;20018;-74
2024/03/02 12:25:20;;;;;;;6.95;1.38;;;14.30;99.90;;;;;;5031763;28;20104;-74
2024/03/02 12:27:50;;;;;;;6.20;1.05;;;14.50;99.90;;;;;;5014885;28;20073;-73
2024/03/02 12:30:19;;;;;;;3.38;1.33;;;14.60;99.90;;;;;;5032362;28;20021;-74
2024/03/02 12:32:45;;;;;;;3.58;1.23;;;14.80;99.90;;;;;;5032880;28;20366;-73
2024/03/02 12:35:14;;;;;;;2.80;0.80;;;14.90;99.90;;;;;;5032251;28;20026;-73
2024/03/02 12:37:48;;;;;;;5.88;1.30;;;15.00;99.90;;;;;;5031602;28;20116;-73
2024/03/02 12:40:18;;;;;;;4.20;1.23;;;15.10;99.90;;;;;;5032490;28;20061;-73
2024/03/02 12:42:48;;;;;;;2.55;0.98;;;15.10;99.90;;;;;;5013900;28;20044;-73
2024/03/02 12:45:14;;;;;;;4.05;1.40;;;15.20;99.90;;;;;;5032674;28;20105;-73
2024/03/02 12:47:41;;;;;;;3.45;0.98;;;15.10;99.90;;;;;;5032445;28;20022;-74
2024/03/02 12:50:07;;;;;;;4.18;1.35;;;15.20;99.90;;;;;;5014860;28;20489;-73
2024/03/02 12:52:34;;;;;;;5.88;1.00;;;15.20;99.90;;;;;;5031557;28;20515;-73
2024/03/02 12:55:03;;;;;;;4.20;1.20;;;15.00;99.90;;;;;;5032595;28;20099;-74
2024/03/02 12:57:29;;;;;;;3.47;1.17;;;14.90;99.90;;;;;;5031598;28;20026;-74
2024/03/02 13:00:08;;;;;;;2.33;1.02;;;14.90;99.90;;;;;;5032192;28;20100;-74